createdAt,value
2018-08-16T00:00:05.509Z,1014.41
2018-08-16T00:01:15.485Z,1014.42
2018-08-16T00:02:25.204Z,1014.41
2018-08-16T00:03:34.933Z,1014.45
2018-08-16T00:04:44.896Z,1014.43
2018-08-16T00:05:54.862Z,1014.39
2018-08-16T00:07:04.835Z,1014.39
2018-08-16T00:08:14.542Z,1014.4
2018-08-16T00:09:24.528Z,1014.42
2018-08-16T00:10:33.972Z,1014.41
2018-08-16T00:11:43.674Z,1014.42
2018-08-16T00:12:53.388Z,1014.42
2018-08-16T00:14:03.357Z,1014.4
2018-08-16T00:15:13.094Z,1014.42
2018-08-16T00:16:23.056Z,1014.41
2018-08-16T00:17:33.032Z,1014.38
2018-08-16T00:18:42.756Z,1014.38
2018-08-16T00:19:52.459Z,1014.41
2018-08-16T00:21:02.446Z,1014.41
2018-08-16T00:22:12.149Z,1014.41
2018-08-16T00:23:21.851Z,1014.43
2018-08-16T00:24:31.819Z,1014.43
2018-08-16T00:25:41.786Z,1014.41
2018-08-16T00:26:51.494Z,1014.47
2018-08-16T00:28:01.198Z,1014.49
2018-08-16T00:29:11.167Z,1014.47
2018-08-16T00:30:21.128Z,1014.45
2018-08-16T00:31:31.095Z,1014.45
2018-08-16T00:32:41.054Z,1014.47
2018-08-16T00:33:51.017Z,1014.46
2018-08-16T00:35:00.732Z,1014.45
2018-08-16T00:36:10.695Z,1014.47
2018-08-16T00:37:20.667Z,1014.44
2018-08-16T00:38:30.661Z,1014.45
2018-08-16T00:39:40.619Z,1014.45
2018-08-16T00:40:50.584Z,1014.47
2018-08-16T00:42:00.555Z,1014.44
2018-08-16T00:43:10.265Z,1014.44
2018-08-16T00:44:20.228Z,1014.43
2018-08-16T00:45:29.940Z,1014.42
2018-08-16T00:46:39.915Z,1014.41
2018-08-16T00:47:49.883Z,1014.39
2018-08-16T00:48:59.592Z,1014.38
2018-08-16T00:50:08.791Z,1014.38
2018-08-16T00:51:18.749Z,1014.39
2018-08-16T00:52:28.453Z,1014.33
2018-08-16T00:53:38.177Z,1014.34
2018-08-16T00:54:48.143Z,1014.34
2018-08-16T00:55:58.110Z,1014.3
2018-08-16T00:57:08.108Z,1014.35
2018-08-16T00:58:17.822Z,1014.33
2018-08-16T00:59:27.792Z,1014.35
2018-08-16T01:00:37.504Z,1014.32
2018-08-16T01:01:47.481Z,1014.32
2018-08-16T01:02:57.450Z,1014.35
2018-08-16T01:04:07.412Z,1014.35
2018-08-16T01:05:17.384Z,1014.33
2018-08-16T01:06:27.351Z,1014.34
2018-08-16T01:07:37.319Z,1014.33
2018-08-16T01:08:47.302Z,1014.34
2018-08-16T01:09:57.291Z,1014.36
2018-08-16T01:11:07.007Z,1014.33
2018-08-16T01:12:17.020Z,1014.33
2018-08-16T01:13:26.989Z,1014.3
2018-08-16T01:14:36.685Z,1014.29
2018-08-16T01:15:46.654Z,1014.3
2018-08-16T01:16:56.375Z,1014.32
2018-08-16T01:18:06.343Z,1014.3
2018-08-16T01:19:16.057Z,1014.28
2018-08-16T01:20:26.053Z,1014.28
2018-08-16T01:21:36.029Z,1014.23
2018-08-16T01:22:45.726Z,1014.26
2018-08-16T01:23:55.175Z,1014.22
2018-08-16T01:25:04.886Z,1014.28
2018-08-16T01:26:14.842Z,1014.26
2018-08-16T01:27:24.829Z,1014.26
2018-08-16T01:28:34.537Z,1014.25
2018-08-16T01:29:44.255Z,1014.24
2018-08-16T01:30:53.701Z,1014.23
2018-08-16T01:32:03.679Z,1014.26
2018-08-16T01:33:13.631Z,1014.23
2018-08-16T01:34:23.599Z,1014.25
2018-08-16T01:35:33.357Z,1014.22
2018-08-16T01:36:43.815Z,1014.21
2018-08-16T01:37:53.522Z,1014.21
2018-08-16T01:39:03.291Z,1014.23
2018-08-16T01:40:12.742Z,1014.27
2018-08-16T01:41:22.447Z,1014.24
2018-08-16T01:42:32.422Z,1014.27
2018-08-16T01:43:42.394Z,1014.26
2018-08-16T01:44:52.094Z,1014.26
2018-08-16T01:46:02.062Z,1014.2
2018-08-16T01:47:11.777Z,1014.2
2018-08-16T01:48:21.744Z,1014.18
2018-08-16T01:49:31.713Z,1014.22
2018-08-16T01:50:41.698Z,1014.2
2018-08-16T01:51:51.662Z,1014.19
2018-08-16T01:53:01.119Z,1014.26
2018-08-16T01:54:11.089Z,1014.24
2018-08-16T01:55:21.068Z,1014.24
2018-08-16T01:56:31.042Z,1014.23
2018-08-16T01:57:40.999Z,1014.2
2018-08-16T01:58:51.008Z,1014.21
2018-08-16T02:00:00.968Z,1014.2
2018-08-16T02:01:10.428Z,1014.21
2018-08-16T02:02:20.396Z,1014.2
2018-08-16T02:03:30.365Z,1014.19
2018-08-16T02:04:40.324Z,1014.21
2018-08-16T02:05:50.041Z,1014.22
2018-08-16T02:07:00.030Z,1014.2
2018-08-16T02:08:09.997Z,1014.2
2018-08-16T02:09:19.965Z,1014.2
2018-08-16T02:10:29.679Z,1014.19
2018-08-16T02:11:39.645Z,1014.22
2018-08-16T02:12:49.602Z,1014.2
2018-08-16T02:13:59.575Z,1014.22
2018-08-16T02:15:09.535Z,1014.24
2018-08-16T02:16:19.233Z,1014.24
2018-08-16T02:17:29.194Z,1014.27
2018-08-16T02:18:38.890Z,1014.26
2018-08-16T02:19:48.334Z,1014.23
2018-08-16T02:20:57.525Z,1014.25
2018-08-16T02:22:07.492Z,1014.25
2018-08-16T02:23:17.459Z,1014.29
2018-08-16T02:24:27.427Z,1014.24
2018-08-16T02:25:37.392Z,1014.32
2018-08-16T02:26:47.093Z,1014.29
2018-08-16T02:27:56.804Z,1014.26
2018-08-16T02:29:06.768Z,1014.28
2018-08-16T02:30:16.463Z,1014.28
2018-08-16T02:31:26.175Z,1014.32
2018-08-16T02:32:36.158Z,1014.3
2018-08-16T02:33:46.294Z,1014.28
2018-08-16T02:34:55.596Z,1014.31
2018-08-16T02:36:05.581Z,1014.28
2018-08-16T02:37:15.560Z,1014.25
2018-08-16T02:38:25.543Z,1014.24
2018-08-16T02:39:35.244Z,1014.23
2018-08-16T02:40:44.948Z,1014.18
2018-08-16T02:41:54.924Z,1014.2
2018-08-16T02:43:04.641Z,1014.24
2018-08-16T02:44:14.348Z,1014.22
2018-08-16T02:45:23.810Z,1014.21
2018-08-16T02:46:33.512Z,1014.22
2018-08-16T02:47:43.468Z,1014.22
2018-08-16T02:48:53.434Z,1014.19
2018-08-16T02:50:03.411Z,1014.17
2018-08-16T02:51:13.390Z,1014.14
2018-08-16T02:52:23.096Z,1014.15
2018-08-16T02:53:33.067Z,1014.16
2018-08-16T02:54:43.034Z,1014.17
2018-08-16T02:55:52.740Z,1014.12
2018-08-16T02:57:02.706Z,1014.16
2018-08-16T02:58:12.664Z,1014.13
2018-08-16T02:59:22.863Z,1014.15
2018-08-16T03:00:32.871Z,1014.11
2018-08-16T03:01:42.594Z,1014.13
2018-08-16T03:02:52.559Z,1014.06
2018-08-16T03:04:02.521Z,1014.1
2018-08-16T03:05:12.237Z,1014.09
2018-08-16T03:06:21.946Z,1014.07
2018-08-16T03:07:31.924Z,1014.07
2018-08-16T03:08:41.902Z,1014.03
2018-08-16T03:09:51.872Z,1014.08
2018-08-16T03:11:01.574Z,1014.08
2018-08-16T03:12:11.550Z,1014.08
2018-08-16T03:13:21.540Z,1014.08
2018-08-16T03:14:31.255Z,1014.07
2018-08-16T03:15:40.963Z,1014.05
2018-08-16T03:16:50.919Z,1014.04
2018-08-16T03:18:00.614Z,1014.04
2018-08-16T03:19:10.573Z,1014.04
2018-08-16T03:20:20.023Z,1014
2018-08-16T03:21:29.735Z,1014
2018-08-16T03:22:39.446Z,1014.04
2018-08-16T03:23:49.422Z,1014.04
2018-08-16T03:24:59.379Z,1014.04
2018-08-16T03:26:09.337Z,1014.1
2018-08-16T03:27:19.310Z,1014.08
2018-08-16T03:28:29.010Z,1014.06
2018-08-16T03:29:38.711Z,1014.05
2018-08-16T03:30:48.678Z,1014.09
2018-08-16T03:31:58.684Z,1014.08
2018-08-16T03:33:08.666Z,1014.08
2018-08-16T03:34:18.634Z,1014.14
2018-08-16T03:35:28.603Z,1014.13
2018-08-16T03:36:38.327Z,1014.15
2018-08-16T03:37:48.042Z,1014.11
2018-08-16T03:38:58.067Z,1014.15
2018-08-16T03:40:08.038Z,1014.17
2018-08-16T03:41:17.756Z,1014.17
2018-08-16T03:42:27.460Z,1014.15
2018-08-16T03:43:37.183Z,1014.17
2018-08-16T03:44:47.146Z,1014.18
2018-08-16T03:45:57.119Z,1014.13
2018-08-16T03:47:07.080Z,1014.13
2018-08-16T03:48:17.140Z,1014.16
2018-08-16T03:49:26.970Z,1014.13
2018-08-16T03:50:36.941Z,1014.14
2018-08-16T03:51:46.905Z,1014.15
2018-08-16T03:52:56.875Z,1014.16
2018-08-16T03:54:06.326Z,1014.2
2018-08-16T03:55:15.784Z,1014.15
2018-08-16T03:56:25.734Z,1014.15
2018-08-16T03:57:35.441Z,1014.17
2018-08-16T03:58:45.404Z,1014.15
2018-08-16T03:59:55.113Z,1014.16
2018-08-16T04:01:04.829Z,1014.21
2018-08-16T04:02:14.538Z,1014.2
2018-08-16T04:11:42.349Z,1014.2
2018-08-16T04:12:52.057Z,1014.19
2018-08-16T04:14:02.030Z,1014.17
2018-08-16T04:15:11.999Z,1014.17
2018-08-16T04:16:21.962Z,1014.17
2018-08-16T04:17:31.661Z,1014.16
2018-08-16T04:18:41.756Z,1014.18
2018-08-16T04:19:51.756Z,1014.17
2018-08-16T04:21:01.465Z,1014.18
2018-08-16T04:22:11.427Z,1014.21
2018-08-16T04:23:21.390Z,1014.2
2018-08-16T04:24:31.147Z,1014.23
2018-08-16T04:25:41.124Z,1014.23
2018-08-16T04:26:51.089Z,1014.23
2018-08-16T04:28:01.051Z,1014.22
2018-08-16T04:29:11.093Z,1014.21
2018-08-16T04:30:20.591Z,1014.2
2018-08-16T04:31:30.564Z,1014.25
2018-08-16T04:32:40.268Z,1014.2
2018-08-16T04:33:50.227Z,1014.19
2018-08-16T04:34:59.997Z,1014.21
2018-08-16T04:36:10.291Z,1014.22
2018-08-16T04:37:19.993Z,1014.16
2018-08-16T04:38:29.953Z,1014.17
2018-08-16T04:39:39.655Z,1014.18
2018-08-16T04:40:49.631Z,1014.19
2018-08-16T04:41:59.408Z,1014.18
2018-08-16T04:43:09.738Z,1014.2
2018-08-16T04:44:19.711Z,1014.17
2018-08-16T04:45:29.683Z,1014.24
2018-08-16T04:46:39.403Z,1014.21
2018-08-16T04:47:48.854Z,1014.23
2018-08-16T04:48:58.582Z,1014.24
2018-08-16T04:50:08.557Z,1014.23
2018-08-16T04:51:18.517Z,1014.22
2018-08-16T04:52:28.479Z,1014.23
2018-08-16T04:53:38.473Z,1014.2
2018-08-16T04:54:48.419Z,1014.18
2018-08-16T04:55:58.146Z,1014.22
2018-08-16T04:57:08.111Z,1014.23
2018-08-16T04:58:18.074Z,1014.19
2018-08-16T04:59:28.046Z,1014.12
2018-08-16T05:00:37.751Z,1014.17
2018-08-16T05:01:47.717Z,1014.15
2018-08-16T05:02:57.429Z,1014.17
2018-08-16T05:04:07.125Z,1014.18
2018-08-16T05:05:16.831Z,1014.19
2018-08-16T05:06:26.787Z,1014.18
2018-08-16T05:07:36.749Z,1014.21
2018-08-16T05:08:46.743Z,1014.2
2018-08-16T05:09:56.469Z,1014.23
2018-08-16T05:11:06.231Z,1014.24
2018-08-16T05:12:16.697Z,1014.27
2018-08-16T05:13:26.400Z,1014.28
2018-08-16T05:14:36.105Z,1014.27
2018-08-16T05:15:46.071Z,1014.27
2018-08-16T05:16:56.025Z,1014.27
2018-08-16T05:18:06.010Z,1014.29
2018-08-16T05:19:15.983Z,1014.29
2018-08-16T05:20:25.698Z,1014.29
2018-08-16T05:21:35.719Z,1014.26
2018-08-16T05:22:45.437Z,1014.29
2018-08-16T05:23:55.515Z,1014.31
2018-08-16T05:25:05.853Z,1014.3
2018-08-16T05:26:15.577Z,1014.27
2018-08-16T05:27:25.547Z,1014.28
2018-08-16T05:28:35.248Z,1014.28
2018-08-16T05:29:45.213Z,1014.27
2018-08-16T05:30:55.208Z,1014.26
2018-08-16T05:32:04.917Z,1014.28
2018-08-16T05:33:14.633Z,1014.19
2018-08-16T05:34:24.344Z,1014.23
2018-08-16T05:35:33.795Z,1014.24
2018-08-16T05:36:43.769Z,1014.24
2018-08-16T05:37:53.726Z,1014.23
2018-08-16T05:39:03.430Z,1014.19
2018-08-16T05:40:13.434Z,1014.25
2018-08-16T05:41:23.459Z,1014.27
2018-08-16T05:42:33.176Z,1014.2
2018-08-16T05:43:43.146Z,1014.23
2018-08-16T05:44:53.120Z,1014.24
2018-08-16T05:46:03.130Z,1014.22
2018-08-16T05:47:12.839Z,1014.26
2018-08-16T05:48:22.826Z,1014.25
2018-08-16T05:49:32.269Z,1014.23
2018-08-16T05:50:42.289Z,1014.2
2018-08-16T05:51:52.380Z,1014.19
2018-08-16T05:53:02.367Z,1014.17
2018-08-16T05:54:12.340Z,1014.21
2018-08-16T05:55:22.062Z,1014.2
2018-08-16T05:56:31.772Z,1014.19
2018-08-16T05:57:41.486Z,1014.23
2018-08-16T05:58:51.196Z,1014.23
2018-08-16T06:00:01.165Z,1014.24
2018-08-16T06:01:10.890Z,1014.19
2018-08-16T06:02:20.856Z,1014.19
2018-08-16T06:03:30.812Z,1014.16
2018-08-16T06:04:40.511Z,1014.21
2018-08-16T06:05:50.476Z,1014.16
2018-08-16T06:07:00.471Z,1014.12
2018-08-16T06:08:10.434Z,1014.12
2018-08-16T06:09:20.403Z,1014.12
2018-08-16T06:10:30.375Z,1014.1
2018-08-16T06:11:40.380Z,1014.07
2018-08-16T06:12:50.350Z,1014.08
2018-08-16T06:14:00.384Z,1014.06
2018-08-16T06:15:10.340Z,1014.04
2018-08-16T06:16:20.408Z,1014.03
2018-08-16T06:17:30.444Z,1014.03
2018-08-16T06:18:40.407Z,1014.02
2018-08-16T06:19:50.398Z,1014.05
2018-08-16T06:21:00.110Z,1014.07
2018-08-16T06:22:10.096Z,1014.08
2018-08-16T06:23:20.142Z,1014.09
2018-08-16T06:24:29.858Z,1014.12
2018-08-16T06:25:39.835Z,1014.07
2018-08-16T06:26:49.544Z,1014.1
2018-08-16T06:27:59.523Z,1014.06
2018-08-16T06:29:09.485Z,1014.06
2018-08-16T06:30:19.459Z,1014.09
2018-08-16T06:31:29.488Z,1014.07
2018-08-16T06:32:39.092Z,1014.05
2018-08-16T06:33:49.087Z,1014.07
2018-08-16T06:34:59.069Z,1014.1
2018-08-16T06:36:08.857Z,1014.03
2018-08-16T06:37:18.852Z,1014.01
2018-08-16T06:38:28.610Z,1014.08
2018-08-16T06:39:38.597Z,1014.05
2018-08-16T06:40:48.310Z,1014.02
2018-08-16T06:41:58.037Z,1014.04
2018-08-16T06:43:07.239Z,1014
2018-08-16T06:44:17.210Z,1014
2018-08-16T06:45:27.183Z,1014.01
2018-08-16T06:46:37.227Z,1014.03
2018-08-16T06:47:47.220Z,1013.98
2018-08-16T06:48:57.193Z,1014.03
2018-08-16T06:50:06.905Z,1014.03
2018-08-16T06:51:16.890Z,1014.02
2018-08-16T06:52:26.877Z,1014.04
2018-08-16T06:53:36.954Z,1014.01
2018-08-16T06:54:46.947Z,1014.01
2018-08-16T06:55:56.919Z,1014.01
2018-08-16T06:57:06.940Z,1013.98
2018-08-16T06:58:16.930Z,1013.96
2018-08-16T06:59:27.443Z,1014
2018-08-16T07:00:37.171Z,1013.99
2018-08-16T07:01:47.144Z,1014
2018-08-16T07:02:56.842Z,1014
2018-08-16T07:04:06.811Z,1014
2018-08-16T07:05:16.786Z,1013.98
2018-08-16T07:06:26.501Z,1013.99
2018-08-16T07:07:36.480Z,1014
2018-08-16T07:08:46.441Z,1013.99
2018-08-16T07:09:56.170Z,1014
2018-08-16T07:11:06.156Z,1014
2018-08-16T07:12:16.314Z,1014
2018-08-16T07:13:27.009Z,1014
2018-08-16T07:14:36.994Z,1013.97
2018-08-16T07:15:46.442Z,1014.01
2018-08-16T07:16:57.685Z,1014.01
2018-08-16T07:18:08.683Z,1014.02
2018-08-16T07:19:18.969Z,1014.07
2018-08-16T07:20:30.318Z,1014.07
2018-08-16T07:21:41.549Z,1014.09
2018-08-16T07:22:51.966Z,1014.04
2018-08-16T07:24:04.299Z,1014.01
2018-08-16T07:25:15.003Z,1014.02
2018-08-16T07:26:24.727Z,1014.02
2018-08-16T07:27:34.435Z,1014.02
2018-08-16T07:28:44.441Z,1014.03
2018-08-16T07:29:54.426Z,1013.99
2018-08-16T07:31:04.801Z,1014
2018-08-16T07:32:14.774Z,1013.94
2018-08-16T07:33:24.836Z,1013.93
2018-08-16T07:34:34.570Z,1013.94
2018-08-16T07:35:44.559Z,1013.92
2018-08-16T07:36:54.293Z,1013.93
2018-08-16T07:38:04.026Z,1013.94
2018-08-16T07:39:13.740Z,1013.99
2018-08-16T07:40:23.719Z,1013.98
2018-08-16T07:41:33.441Z,1014.03
2018-08-16T07:42:42.888Z,1014.02
2018-08-16T07:43:52.603Z,1013.98
2018-08-16T07:45:02.061Z,1013.98
2018-08-16T07:46:12.296Z,1014
2018-08-16T07:47:23.261Z,1013.97
2018-08-16T07:48:33.225Z,1013.95
2018-08-16T07:49:43.093Z,1013.97
2018-08-16T07:50:53.161Z,1013.94
2018-08-16T07:52:03.137Z,1013.97
2018-08-16T07:53:13.633Z,1013.94
2018-08-16T07:54:23.604Z,1013.95
2018-08-16T07:55:33.687Z,1013.91
2018-08-16T07:56:43.391Z,1013.95
2018-08-16T07:57:53.474Z,1013.93
2018-08-16T07:59:03.454Z,1013.88
2018-08-16T08:00:13.451Z,1013.87
2018-08-16T08:01:23.442Z,1013.92
2018-08-16T08:02:33.150Z,1013.89
2018-08-16T08:03:43.129Z,1013.89
2018-08-16T08:04:52.849Z,1013.92
2018-08-16T08:06:02.572Z,1013.96
2018-08-16T08:07:12.610Z,1013.97
2018-08-16T08:08:22.370Z,1013.94
2018-08-16T08:09:32.522Z,1013.95
2018-08-16T08:10:43.031Z,1013.95
2018-08-16T08:11:52.486Z,1013.9
2018-08-16T08:13:02.220Z,1013.87
2018-08-16T08:14:12.208Z,1013.91
2018-08-16T08:15:21.927Z,1013.89
2018-08-16T08:16:31.929Z,1013.89
2018-08-16T08:17:41.919Z,1013.9
2018-08-16T08:18:51.642Z,1013.87
2018-08-16T08:20:01.633Z,1013.81
2018-08-16T08:21:11.617Z,1013.87
2018-08-16T08:22:21.355Z,1013.83
2018-08-16T08:23:30.814Z,1013.78
2018-08-16T08:24:40.809Z,1013.79
2018-08-16T08:25:50.777Z,1013.77
2018-08-16T08:27:00.492Z,1013.71
2018-08-16T08:28:10.479Z,1013.76
2018-08-16T08:29:20.192Z,1013.74
2018-08-16T08:30:29.676Z,1013.74
2018-08-16T08:31:39.680Z,1013.74
2018-08-16T08:32:49.861Z,1013.77
2018-08-16T08:33:59.844Z,1013.73
2018-08-16T08:35:09.561Z,1013.73
2018-08-16T08:36:19.016Z,1013.76
2018-08-16T08:37:28.982Z,1013.68
2018-08-16T08:38:38.473Z,1013.72
2018-08-16T08:39:48.459Z,1013.69
2018-08-16T08:40:58.497Z,1013.67
2018-08-16T08:42:08.486Z,1013.69
2018-08-16T08:43:18.453Z,1013.66
2018-08-16T08:44:28.419Z,1013.65
2018-08-16T08:45:38.404Z,1013.61
2018-08-16T08:46:48.383Z,1013.61
2018-08-16T08:47:58.360Z,1013.64
2018-08-16T08:49:08.338Z,1013.64
2018-08-16T08:50:18.082Z,1013.6
2018-08-16T08:51:28.187Z,1013.6
2018-08-16T08:52:37.890Z,1013.54
2018-08-16T08:53:47.871Z,1013.56
2018-08-16T08:54:57.582Z,1013.53
2018-08-16T08:56:07.301Z,1013.51
2018-08-16T08:57:17.035Z,1013.56
2018-08-16T08:58:26.743Z,1013.56
2018-08-16T08:59:36.731Z,1013.52
2018-08-16T09:00:46.720Z,1013.5
2018-08-16T09:01:56.686Z,1013.48
2018-08-16T09:03:06.472Z,1013.5
2018-08-16T09:04:16.443Z,1013.48
2018-08-16T09:05:25.898Z,1013.46
2018-08-16T09:06:35.866Z,1013.46
2018-08-16T09:07:45.902Z,1013.43
2018-08-16T09:08:55.884Z,1013.46
2018-08-16T09:10:05.880Z,1013.46
2018-08-16T09:11:15.862Z,1013.43
2018-08-16T09:12:25.843Z,1013.42
2018-08-16T09:13:35.869Z,1013.53
2018-08-16T09:14:45.806Z,1013.44
2018-08-16T09:15:56.081Z,1013.43
2018-08-16T09:17:06.059Z,1013.4
2018-08-16T09:18:16.030Z,1013.38
2018-08-16T09:19:26.018Z,1013.36
2018-08-16T09:20:36.024Z,1013.4
2018-08-16T09:21:46.030Z,1013.42
2018-08-16T09:22:55.766Z,1013.42
2018-08-16T09:24:05.611Z,1013.4
2018-08-16T09:25:15.983Z,1013.37
2018-08-16T09:26:25.963Z,1013.34
2018-08-16T09:27:35.953Z,1013.35
2018-08-16T09:28:45.938Z,1013.31
2018-08-16T09:29:55.934Z,1013.32
2018-08-16T09:31:05.967Z,1013.31
2018-08-16T09:32:16.424Z,1013.35
2018-08-16T09:33:26.410Z,1013.33
2018-08-16T09:34:36.388Z,1013.29
2018-08-16T09:35:46.434Z,1013.3
2018-08-16T09:36:56.163Z,1013.31
2018-08-16T09:38:05.644Z,1013.3
2018-08-16T09:39:15.709Z,1013.31
2018-08-16T09:40:26.284Z,1013.27
2018-08-16T09:41:36.283Z,1013.29
2018-08-16T09:42:46.311Z,1013.31
2018-08-16T09:43:56.301Z,1013.3
2018-08-16T09:45:06.061Z,1013.3
2018-08-16T09:46:16.335Z,1013.26
2018-08-16T09:47:26.053Z,1013.26
2018-08-16T09:48:35.799Z,1013.2
2018-08-16T09:49:45.788Z,1013.23
2018-08-16T09:50:55.248Z,1013.22
2018-08-16T09:52:05.222Z,1013.2
2018-08-16T09:53:14.928Z,1013.24
2018-08-16T09:54:24.652Z,1013.2
2018-08-16T09:55:34.631Z,1013.17
2018-08-16T09:56:44.358Z,1013.17
2018-08-16T09:57:54.086Z,1013.11
2018-08-16T09:59:03.800Z,1013.14
2018-08-16T10:00:13.784Z,1013.08
2018-08-16T10:01:23.775Z,1013.09
2018-08-16T10:02:33.758Z,1013.11
2018-08-16T10:03:43.737Z,1013.08
2018-08-16T10:04:53.715Z,1013.08
2018-08-16T10:06:03.446Z,1013.04
2018-08-16T10:07:13.449Z,1013.08
2018-08-16T10:08:23.429Z,1013.05
2018-08-16T10:09:33.417Z,1013.04
2018-08-16T10:10:43.425Z,1013.01
2018-08-16T10:11:53.164Z,1013.02
2018-08-16T10:13:02.881Z,1013
2018-08-16T10:14:12.865Z,1013
2018-08-16T10:15:22.883Z,1012.94
2018-08-16T10:16:32.884Z,1012.94
2018-08-16T10:17:42.368Z,1012.9
2018-08-16T10:18:52.371Z,1012.87
2018-08-16T10:20:02.090Z,1012.9
2018-08-16T10:21:12.079Z,1012.86
2018-08-16T10:22:22.069Z,1012.88
2018-08-16T10:23:31.848Z,1012.88
2018-08-16T10:24:41.850Z,1012.86
2018-08-16T10:25:51.621Z,1012.86
2018-08-16T10:27:01.680Z,1012.87
2018-08-16T10:28:11.986Z,1012.83
2018-08-16T10:29:21.985Z,1012.81
2018-08-16T10:30:31.739Z,1012.85
2018-08-16T10:31:41.209Z,1012.87
2018-08-16T10:32:51.418Z,1012.86
2018-08-16T10:34:01.415Z,1012.86
2018-08-16T10:35:11.399Z,1012.8
2018-08-16T10:36:21.391Z,1012.76
2018-08-16T10:37:31.370Z,1012.82
2018-08-16T10:38:41.103Z,1012.72
2018-08-16T10:39:51.075Z,1012.76
2018-08-16T10:41:01.055Z,1012.7
2018-08-16T10:42:11.050Z,1012.76
2018-08-16T10:43:20.782Z,1012.74
2018-08-16T10:44:30.530Z,1012.76
2018-08-16T10:45:40.629Z,1012.76
2018-08-16T10:46:50.611Z,1012.79
2018-08-16T10:48:00.596Z,1012.79
2018-08-16T10:49:10.586Z,1012.74
2018-08-16T10:50:20.606Z,1012.75
2018-08-16T10:51:30.583Z,1012.71
2018-08-16T10:52:40.588Z,1012.67
2018-08-16T10:53:50.313Z,1012.67
2018-08-16T10:54:59.774Z,1012.7
2018-08-16T10:56:09.768Z,1012.66
2018-08-16T10:57:19.769Z,1012.66
2018-08-16T10:58:29.510Z,1012.72
2018-08-16T10:59:38.986Z,1012.71
2018-08-16T11:00:48.971Z,1012.7
2018-08-16T11:01:58.449Z,1012.68
2018-08-16T11:03:08.173Z,1012.63
2018-08-16T11:04:18.176Z,1012.63
2018-08-16T11:05:28.145Z,1012.62
2018-08-16T11:06:38.129Z,1012.57
2018-08-16T11:07:48.121Z,1012.58
2018-08-16T11:08:57.845Z,1012.53
2018-08-16T11:10:07.565Z,1012.53
2018-08-16T11:11:17.556Z,1012.5
2018-08-16T11:12:27.648Z,1012.51
2018-08-16T11:13:37.365Z,1012.49
2018-08-16T11:14:47.349Z,1012.5
2018-08-16T11:15:57.081Z,1012.53
2018-08-16T11:17:07.132Z,1012.45
2018-08-16T11:18:17.110Z,1012.47
2018-08-16T11:19:26.849Z,1012.46
2018-08-16T11:20:36.575Z,1012.46
2018-08-16T11:21:46.546Z,1012.42
2018-08-16T11:22:56.525Z,1012.37
2018-08-16T11:24:06.528Z,1012.44
2018-08-16T11:25:16.513Z,1012.41
2018-08-16T11:26:26.508Z,1012.43
2018-08-16T11:27:36.498Z,1012.33
2018-08-16T11:28:46.480Z,1012.29
2018-08-16T11:29:56.462Z,1012.34
2018-08-16T11:31:06.454Z,1012.3
2018-08-16T11:32:16.471Z,1012.27
2018-08-16T11:33:26.200Z,1012.24
2018-08-16T11:34:35.928Z,1012.22
2018-08-16T11:35:45.951Z,1012.25
2018-08-16T11:36:55.691Z,1012.19
2018-08-16T11:38:05.422Z,1012.15
2018-08-16T11:39:15.518Z,1012.15
2018-08-16T11:40:25.503Z,1012.15
2018-08-16T11:41:35.597Z,1012.12
2018-08-16T11:42:45.831Z,1012.16
2018-08-16T11:43:55.835Z,1012.17
2018-08-16T11:45:05.833Z,1012.04
2018-08-16T11:46:15.821Z,1012.1
2018-08-16T11:47:25.311Z,1012.09
2018-08-16T11:48:35.305Z,1012.07
2018-08-16T11:49:45.036Z,1012.06
2018-08-16T11:50:55.022Z,1012.03
2018-08-16T11:52:04.750Z,1012.07
2018-08-16T11:53:14.720Z,1011.96
2018-08-16T11:54:24.434Z,1012.05
2018-08-16T11:55:34.433Z,1012.04
2018-08-16T11:56:44.436Z,1012
2018-08-16T11:57:54.151Z,1011.97
2018-08-16T11:59:04.135Z,1012.05
2018-08-16T12:00:13.859Z,1011.98
2018-08-16T12:01:23.847Z,1012
2018-08-16T12:02:33.575Z,1011.96
2018-08-16T12:03:43.047Z,1012
2018-08-16T12:04:53.041Z,1011.97
2018-08-16T12:06:03.021Z,1011.91
2018-08-16T12:07:13.142Z,1011.93
2018-08-16T12:08:23.133Z,1011.9
2018-08-16T12:09:32.863Z,1011.93
2018-08-16T12:10:42.598Z,1011.81
2018-08-16T12:11:52.606Z,1011.77
2018-08-16T12:13:02.596Z,1011.78
2018-08-16T12:14:12.577Z,1011.75
2018-08-16T12:15:22.662Z,1011.75
2018-08-16T12:16:32.723Z,1011.75
2018-08-16T12:17:42.235Z,1011.75
2018-08-16T12:18:52.205Z,1011.73
2018-08-16T12:20:01.456Z,1011.74
2018-08-16T12:21:11.541Z,1011.76
2018-08-16T12:22:21.340Z,1011.77
2018-08-16T12:23:31.063Z,1011.76
2018-08-16T12:24:40.550Z,1011.72
2018-08-16T12:25:50.284Z,1011.69
2018-08-16T12:27:00.273Z,1011.65
2018-08-16T12:28:10.265Z,1011.69
2018-08-16T12:29:19.983Z,1011.71
2018-08-16T12:30:29.971Z,1011.65
2018-08-16T12:31:40.051Z,1011.68
2018-08-16T12:32:50.033Z,1011.7
2018-08-16T12:34:00.026Z,1011.67
2018-08-16T12:35:10.001Z,1011.66
2018-08-16T12:36:19.731Z,1011.62
2018-08-16T12:37:29.470Z,1011.61
2018-08-16T12:38:39.582Z,1011.6
2018-08-16T12:39:49.588Z,1011.53
2018-08-16T12:40:59.349Z,1011.59
2018-08-16T12:42:09.522Z,1011.56
2018-08-16T12:43:18.527Z,1011.55
2018-08-16T12:44:28.492Z,1011.55
2018-08-16T12:45:38.552Z,1011.54
2018-08-16T12:46:48.510Z,1011.58
2018-08-16T12:47:58.231Z,1011.54
2018-08-16T12:49:08.207Z,1011.52
2018-08-16T12:50:18.191Z,1011.51
2018-08-16T12:51:27.665Z,1011.47
2018-08-16T12:52:36.856Z,1011.45
2018-08-16T12:53:46.838Z,1011.44
2018-08-16T12:54:56.823Z,1011.38
2018-08-16T12:56:06.544Z,1011.38
2018-08-16T12:57:16.511Z,1011.4
2018-08-16T12:58:26.241Z,1011.33
2018-08-16T12:59:36.223Z,1011.35
2018-08-16T13:00:45.955Z,1011.32
2018-08-16T13:01:55.987Z,1011.28
2018-08-16T13:03:06.337Z,1011.21
2018-08-16T13:04:16.084Z,1011.17
2018-08-16T13:05:26.070Z,1011.17
2018-08-16T13:06:36.075Z,1011.18
2018-08-16T13:07:45.818Z,1011.13
2018-08-16T13:08:55.863Z,1011.05
2018-08-16T13:10:06.280Z,1011.03
2018-08-16T13:11:16.017Z,1010.98
2018-08-16T13:12:26.004Z,1010.99
2018-08-16T13:13:35.996Z,1010.99
2018-08-16T13:14:45.725Z,1010.98
2018-08-16T13:15:56.009Z,1010.97
2018-08-16T13:17:05.750Z,1011
2018-08-16T13:18:15.770Z,1010.98
2018-08-16T13:19:25.249Z,1010.99
2018-08-16T13:20:35.237Z,1010.98
2018-08-16T13:21:45.225Z,1010.98
2018-08-16T13:22:55.216Z,1010.98
2018-08-16T13:24:04.696Z,1010.93
2018-08-16T13:25:14.686Z,1010.98
2018-08-16T13:26:24.678Z,1010.97
2018-08-16T13:27:34.765Z,1010.93
2018-08-16T13:28:45.448Z,1010.93
2018-08-16T13:29:55.459Z,1010.9
2018-08-16T13:31:05.595Z,1010.88
2018-08-16T13:32:15.912Z,1010.87
2018-08-16T13:33:25.643Z,1010.85
2018-08-16T13:34:35.637Z,1010.82
2018-08-16T13:35:45.622Z,1010.83
2018-08-16T13:36:55.603Z,1010.82
2018-08-16T13:38:05.911Z,1010.81
2018-08-16T13:39:15.647Z,1010.81
2018-08-16T13:40:25.121Z,1010.82
2018-08-16T13:41:34.324Z,1010.79
2018-08-16T13:42:43.793Z,1010.82
2018-08-16T13:43:53.770Z,1010.78
2018-08-16T13:45:03.770Z,1010.79
2018-08-16T13:46:13.764Z,1010.81
2018-08-16T13:47:23.762Z,1010.78
2018-08-16T13:48:33.815Z,1010.76
2018-08-16T13:49:43.776Z,1010.74
2018-08-16T13:50:53.510Z,1010.76
2018-08-16T13:52:03.483Z,1010.72
2018-08-16T13:53:13.832Z,1010.67
2018-08-16T13:54:23.549Z,1010.62
2018-08-16T13:55:33.546Z,1010.69
2018-08-16T13:56:43.527Z,1010.64
2018-08-16T13:57:53.518Z,1010.66
2018-08-16T13:59:03.239Z,1010.62
2018-08-16T14:00:12.988Z,1010.59
2018-08-16T14:01:22.205Z,1010.56
2018-08-16T14:02:32.215Z,1010.59
2018-08-16T14:03:41.942Z,1010.6
2018-08-16T14:04:51.681Z,1010.56
2018-08-16T14:06:01.421Z,1010.52
2018-08-16T14:07:10.889Z,1010.58
2018-08-16T14:08:20.345Z,1010.51
2018-08-16T14:09:30.337Z,1010.55
2018-08-16T14:10:39.806Z,1010.54
2018-08-16T14:11:49.546Z,1010.55
2018-08-16T14:12:59.533Z,1010.49
2018-08-16T14:14:09.264Z,1010.51
2018-08-16T14:15:18.998Z,1010.51
2018-08-16T14:16:28.993Z,1010.56
2018-08-16T14:17:38.963Z,1010.55